Weather

*Note: Some stations are located near irrigated fields and may also report irrigation

Forrest Carberry Wawanesa Glenboro Glenora Treherne Holland Gladstone Portage East High Bluff Oakland Elm Creek Carman Winkler Kuhl Farm Morris St.Adolphe Steinbach Selkirk Shilo Rivers Somerset Reinland Altona Starbuck St.Pierre Winkler Kane Brunkild Austin Bagot Elie Kenton Neepawa St. Claude




Austin - Historical Weather Data
Date Max Temp (°C) Min Temp (°C) Avg Temp (°C) Rain (mm) Avg RH (%) Solar Radiation (W/m2)
9/24/2022 20.5 10.6 14.2 0.0 75.0 13.7
9/23/2022 15.5 7.4 11.3 0.4 82.0 4.3
9/22/2022 15.6 1.1 8.7 0.0 78.0 16.8
9/21/2022 13.0 5.5 10.2 4.8 84.0 7.9
9/20/2022 17.7 9.7 13.2 0.0 77.0 11.8
9/19/2022 19.0 8.2 13.5 10.6 88.0 6.9
9/18/2022 24.3 9.0 15.3 0.0 81.0 11.2
9/17/2022 15.1 11.2 12.9 0.9 94.0 5.3
9/16/2022 13.5 10.9 11.7 9.9 94.0 3.1
9/15/2022 17.6 11.2 14.0 6.2 80.0 10.7
9/14/2022 18.7 8.4 13.2 0.0 67.0 9.1
9/13/2022 17.1 4.4 11.7 0.0 70.0 15.6
9/12/2022 29.4 10.2 17.4 0.0 56.0 17.4
9/11/2022 26.0 6.9 15.9 0.0 55.0 18.5
9/10/2022 18.2 7.6 11.8 0.0 65.0 14.5
9/9/2022 19.1 7.6 13.1 0.0 67.0 18.7
9/8/2022 24.8 10.9 20.4 0.0 59.0 10.1
9/7/2022 28.5 8.2 18.7 0.0 58.0 19.4
9/6/2022 25.5 11.0 19.8 0.0 59.0 20.5
9/5/2022 26.9 11.1 19.0 0.0 72.0 17.4
9/4/2022 27.0 13.1 19.1 0.0 60.0 20.9
9/3/2022 25.4 6.6 16.0 0.0 70.0 21.4
9/2/2022 24.6 10.9 17.9 0.0 60.0 21.7
9/1/2022 33.0 16.2 24.8 0.0 57.0 19.8
8/31/2022 30.4 13.1 22.0 0.0 66.0 21.4
8/30/2022 27.6 12.8 20.1 0.0 64.0 21.8
8/29/2022 23.0 14.9 18.4 4.7 72.0 16.8
8/28/2022 25.4 15.1 20.8 0.0 65.0 15.6
8/27/2022 27.7 11.8 19.3 0.0 78.0 18.1
8/26/2022 27.3 14.4 20.4 0.0 68.0 21.6
8/25/2022 25.0 7.3 16.6 0.0 77.0 22.0
8/24/2022 21.0 10.4 16.4 0.0 84.0 14.8
8/23/2022 23.4 15.3 18.6 10.5 89.0 13.3
8/22/2022 22.2 15.0 19.2 0.0 90.0 8.5
8/21/2022 29.9 13.4 21.6 0.0 68.0 21.8
8/20/2022 25.5 11.2 18.4 0.0 73.0 24.6
8/19/2022 24.7 15.0 20.3 0.0 82.0 19.1
8/18/2022 21.9 17.1 19.0 4.7 89.0 8.1
8/17/2022 29.0 16.5 23.0 0.0 77.0 19.7
8/16/2022 27.3 13.9 20.6 0.0 83.0 19.9
8/15/2022 23.9 16.7 19.4 17.7 91.0 10.2
8/14/2022 28.7 16.4 22.3 0.0 77.0 21.5
8/13/2022 28.4 14.1 21.1 0.0 79.0 23.1
8/12/2022 25.3 15.8 20.1 0.0 80.0 19.9
8/11/2022 23.9 7.5 16.4 1.5 79.0 16.7
8/10/2022 22.5 11.6 17.1 0.0 71.0 21.7
8/9/2022 24.8 15.5 21.2 0.0 60.0 25.2
8/8/2022 30.8 14.6 22.6 0.0 67.0 24.9
8/7/2022 22.5 9.4 15.9 0.0 76.0 21.9
8/6/2022 18.0 11.9 15.4 0.0 70.0 16.8
8/5/2022 25.9 17.6 23.2 1.7 64.0 17.5
8/4/2022 29.5 12.7 21.2 0.0 74.0 24.9
8/3/2022 21.5 14.5 17.6 0.0 70.0 18.9
8/2/2022 29.4 14.4 20.8 0.0 75.0 19.5
8/1/2022 21.9 13.2 17.5 5.3 84.0 9.3
7/31/2022 23.7 14.0 18.7 1.0 82.0 11.7
7/30/2022 31.6 14.3 22.8 0.0 69.0 25.5
7/29/2022 26.3 12.2 19.7 0.0 68.0 26.1
7/28/2022 23.4 11.5 17.7 0.0 68.0 24.9
7/27/2022 19.5 12.3 16.0 0.5 75.0 18.9
7/26/2022 24.1 13.1 18.4 0.0 72.0 24.5
7/25/2022 24.2 11.8 18.2 1.3 79.0 13.9
7/24/2022 20.9 12.9 16.5 0.0 72.0 20.8
7/23/2022 21.3 14.4 18.0 0.7 78.0 18.3
7/22/2022 27.5 15.4 21.4 0.0 70.0 26.5
7/21/2022 25.7 14.7 20.5 0.0 65.0 27.0
7/20/2022 25.9 17.0 21.6 0.0 70.0 25.6
7/19/2022 26.1 18.2 22.0 30.5 80.0 15.0
7/18/2022 28.7 19.3 24.2 3.6 78.0 25.0
7/17/2022 34.0 21.2 27.1 0.0 76.0 27.1
7/16/2022 29.4 18.3 24.2 3.4 74.0 26.0
7/15/2022 29.6 15.8 23.0 0.0 79.0 27.3
7/14/2022 25.9 18.5 20.8 3.7 80.0 10.2
7/13/2022 27.7 14.0 21.7 0.0 69.0 27.6
7/12/2022 25.8 16.1 21.1 0.0 64.0 27.9
7/11/2022 26.0 16.9 21.3 0.1 69.0 27.4
7/10/2022 27.7 17.3 22.2 3.5 74.0 18.6
7/9/2022 29.3 17.7 23.6 0.0 71.0 22.6
7/8/2022 26.1 11.6 19.8 0.0 69.0 26.6
7/7/2022 21.6 14.1 18.2 0.0 72.0 20.7
7/6/2022 27.9 17.2 21.9 0.0 77.0 21.8
7/5/2022 23.4 15.2 18.9 0.0 82.0 14.8
7/4/2022 19.7 16.4 17.5 14.0 94.0 4.1
7/3/2022 26.1 14.1 20.3 0.3 61.0 23.3
7/2/2022 21.4 11.2 16.3 0.1 63.0 24.7
7/1/2022 21.2 10.9 16.3 0.0 56.0 29.2
6/30/2022 22.1 15.0 18.3 0.0 62.0 23.1
6/29/2022 24.8 12.6 18.3 0.0 66.0 16.0
6/28/2022 20.5 12.8 16.5 0.2 64.0 26.5
6/27/2022 27.9 14.4 20.4 0.0 60.0 26.7
6/26/2022 22.0 10.6 16.2 0.0 69.0 23.3
6/25/2022 18.1 11.0 15.0 0.4 78.0 16.3
6/24/2022 23.2 17.0 19.7 13.8 86.0 11.1
6/23/2022 30.8 17.0 23.8 0.0 61.0 28.9
6/22/2022 27.5 11.6 20.0 0.0 67.0 28.3
6/21/2022 19.3 14.1 17.1 25.9 85.0 10.4
6/20/2022 27.5 18.1 23.0 0.0 79.0 19.7
6/19/2022 35.2 20.3 28.4 0.0 65.0 27.3
6/18/2022 28.2 14.6 21.7 0.0 62.0 21.1
6/17/2022 23.2 13.0 17.5 0.0 75.0 27.6
6/16/2022 22.2 11.6 17.0 0.0 70.0 21.1
6/15/2022 20.7 11.8 15.4 0.3 73.0 21.8
6/14/2022 20.2 14.3 18.0 88.0 90.0 9.5
6/13/2022 19.1 12.9 15.8 16.1 93.0 7.8
6/12/2022 21.3 14.7 17.5 17.8 85.0 14.6
6/11/2022 25.8 13.6 19.8 0.0 71.0 21.0
6/10/2022 23.3 13.3 18.5 0.7 59.0 18.5
6/9/2022 24.0 6.3 16.5 0.0 56.0 24.6
6/8/2022 23.1 6.0 15.4 0.0 52.0 21.5
6/7/2022 20.8 7.2 15.1 0.0 55.0 28.5
6/6/2022 18.8 4.9 13.3 0.0 64.0 30.0
6/5/2022 14.6 5.1 10.5 0.0 67.0 29.1
6/4/2022 17.6 2.7 11.4 0.0 61.0 28.5
6/3/2022 20.5 3.8 12.0 0.0 52.0 29.9
6/2/2022 11.2 6.0 8.8 0.0 67.0 7.0
6/1/2022 17.8 5.8 12.1 0.0 55.0 29.0
5/31/2022 14.6 6.8 10.0 28.6 78.0 14.9
5/30/2022 15.5 11.0 13.7 14.4 91.0 3.9
5/29/2022 17.9 12.1 13.9 0.7 93.0 4.5
5/28/2022 21.1 12.4 16.3 3.2 78.0 17.0
5/27/2022 24.2 5.9 15.9 2.0 68.0 23.2
5/26/2022 25.0 10.8 16.8 0.4 56.0 16.9
5/25/2022 21.7 9.1 16.1 0.4 53.0 19.1
5/24/2022 22.2 7.8 15.4 0.0 59.0 28.1
5/23/2022 18.3 6.0 12.1 0.6 52.0 18.0
5/22/2022 16.1 0.9 9.7 0.0 55.0 28.2
5/21/2022 10.3 0.8 5.4 0.3 68.0 19.0
5/20/2022 6.5 0.8 3.0 8.3 78.0 9.7
5/19/2022 12.1 5.5 8.3 28.1 83.0 5.1
5/18/2022 10.6 7.5 9.0 3.8 90.0 4.3
5/17/2022 11.9 4.8 8.4 9.8 88.0 4.8
5/16/2022 11.8 2.4 7.5 0.0 73.0 24.8
5/15/2022 16.3 4.3 9.5 0.0 69.0 20.1
5/14/2022 10.7 5.2 7.9 0.0 71.0 10.3
5/13/2022 13.6 8.8 11.1 3.9 86.0 6.5
5/12/2022 15.0 8.8 11.9 4.8 69.0 6.5
5/11/2022 16.0 3.2 10.4 0.0 70.0 6.7
5/10/2022 18.7 7.6 13.2 0.2 60.0 26.2
5/9/2022 13.1 7.8 10.8 19.8 92.0 2.7
5/8/2022 19.4 8.0 14.1 0.0 61.0 24.9
5/7/2022 21.2 12.6 16.6 6.1 72.0 14.1
5/6/2022 17.3 7.2 13.4 0.0 71.0 12.8
5/5/2022 19.3 6.4 13.4 0.0 64.0 26.1
5/4/2022 17.9 3.2 10.6 0.0 64.0 25.9
5/3/2022 10.8 -2.7 4.2 0.0 76.0 25.8
5/2/2022 4.1 -1.1 1.2 0.1 84.0 10.7
5/1/2022 4.5 0.6 2.4 1.9 85.0 8.1